sensor_id;sensor_type;location;lat;lon;timestamp;temperature;humidity
72905;DHT22;61048;52.162;4.516;2023-09-19T00:02:21;21.80;58.00
72905;DHT22;61048;52.162;4.516;2023-09-19T00:04:48;21.80;58.00
72905;DHT22;61048;52.162;4.516;2023-09-19T00:07:15;21.80;58.10
72905;DHT22;61048;52.162;4.516;2023-09-19T00:09:43;21.80;58.00
72905;DHT22;61048;52.162;4.516;2023-09-19T00:12:10;21.80;58.00
72905;DHT22;61048;52.162;4.516;2023-09-19T00:14:38;21.80;58.00
72905;DHT22;61048;52.162;4.516;2023-09-19T00:17:07;21.80;58.00
72905;DHT22;61048;52.162;4.516;2023-09-19T00:19:34;21.80;58.20
72905;DHT22;61048;52.162;4.516;2023-09-19T00:22:01;21.80;58.10
72905;DHT22;61048;52.162;4.516;2023-09-19T00:24:28;21.80;58.20
72905;DHT22;61048;52.162;4.516;2023-09-19T00:26:56;21.80;58.10
72905;DHT22;61048;52.162;4.516;2023-09-19T00:29:25;21.80;58.20
72905;DHT22;61048;52.162;4.516;2023-09-19T00:31:55;21.80;58.10
72905;DHT22;61048;52.162;4.516;2023-09-19T00:34:23;21.80;58.00
72905;DHT22;61048;52.162;4.516;2023-09-19T00:36:51;21.80;58.00
72905;DHT22;61048;52.162;4.516;2023-09-19T00:39:20;21.70;58.10
72905;DHT22;61048;52.162;4.516;2023-09-19T00:41:47;21.80;58.30
72905;DHT22;61048;52.162;4.516;2023-09-19T00:44:14;21.70;58.30
72905;DHT22;61048;52.162;4.516;2023-09-19T00:46:43;21.70;58.20
72905;DHT22;61048;52.162;4.516;2023-09-19T00:49:13;21.80;58.10
72905;DHT22;61048;52.162;4.516;2023-09-19T00:51:42;21.70;58.20
72905;DHT22;61048;52.162;4.516;2023-09-19T00:54:12;21.80;58.10
72905;DHT22;61048;52.162;4.516;2023-09-19T00:56:44;21.70;58.30
72905;DHT22;61048;52.162;4.516;2023-09-19T00:59:11;21.70;58.20
72905;DHT22;61048;52.162;4.516;2023-09-19T01:01:39;21.70;58.20
72905;DHT22;61048;52.162;4.516;2023-09-19T01:04:06;21.70;58.20
72905;DHT22;61048;52.162;4.516;2023-09-19T01:06:33;21.70;58.10
72905;DHT22;61048;52.162;4.516;2023-09-19T01:09:03;21.70;58.00
72905;DHT22;61048;52.162;4.516;2023-09-19T01:11:35;21.70;58.10
72905;DHT22;61048;52.162;4.516;2023-09-19T01:14:15;21.70;58.10
72905;DHT22;61048;52.162;4.516;2023-09-19T01:16:53;21.70;58.10
72905;DHT22;61048;52.162;4.516;2023-09-19T01:19:33;21.70;58.10
72905;DHT22;61048;52.162;4.516;2023-09-19T01:22:16;21.70;58.10
72905;DHT22;61048;52.162;4.516;2023-09-19T01:28:06;21.70;58.00
72905;DHT22;61048;52.162;4.516;2023-09-19T01:30:39;21.70;58.00
72905;DHT22;61048;52.162;4.516;2023-09-19T01:33:09;21.70;58.00
72905;DHT22;61048;52.162;4.516;2023-09-19T01:35:37;21.70;58.00
72905;DHT22;61048;52.162;4.516;2023-09-19T01:38:05;21.70;58.00
72905;DHT22;61048;52.162;4.516;2023-09-19T01:40:40;21.70;57.80
72905;DHT22;61048;52.162;4.516;2023-09-19T01:43:11;21.70;57.90
72905;DHT22;61048;52.162;4.516;2023-09-19T01:45:46;21.70;57.90
72905;DHT22;61048;52.162;4.516;2023-09-19T01:48:25;21.70;57.80
72905;DHT22;61048;52.162;4.516;2023-09-19T01:50:59;21.70;57.70
72905;DHT22;61048;52.162;4.516;2023-09-19T01:53:28;21.70;58.00
72905;DHT22;61048;52.162;4.516;2023-09-19T01:55:57;21.60;57.80
72905;DHT22;61048;52.162;4.516;2023-09-19T01:58:29;21.60;57.80
72905;DHT22;61048;52.162;4.516;2023-09-19T02:01:00;21.60;57.80
72905;DHT22;61048;52.162;4.516;2023-09-19T02:03:28;21.60;57.80
72905;DHT22;61048;52.162;4.516;2023-09-19T02:05:55;21.60;57.60
72905;DHT22;61048;52.162;4.516;2023-09-19T02:08:23;21.60;57.60
72905;DHT22;61048;52.162;4.516;2023-09-19T02:10:50;21.60;57.70
72905;DHT22;61048;52.162;4.516;2023-09-19T02:13:19;21.60;57.80
72905;DHT22;61048;52.162;4.516;2023-09-19T02:15:47;21.60;57.80
72905;DHT22;61048;52.162;4.516;2023-09-19T02:18:15;21.60;57.80
72905;DHT22;61048;52.162;4.516;2023-09-19T02:20:42;21.60;57.80
72905;DHT22;61048;52.162;4.516;2023-09-19T02:23:10;21.60;57.80
72905;DHT22;61048;52.162;4.516;2023-09-19T02:25:38;21.60;57.70
72905;DHT22;61048;52.162;4.516;2023-09-19T02:28:06;21.60;57.90
72905;DHT22;61048;52.162;4.516;2023-09-19T02:30:33;21.60;57.90
72905;DHT22;61048;52.162;4.516;2023-09-19T02:33:01;21.60;57.80
72905;DHT22;61048;52.162;4.516;2023-09-19T02:35:32;21.60;57.80
72905;DHT22;61048;52.162;4.516;2023-09-19T02:38:01;21.60;57.80
72905;DHT22;61048;52.162;4.516;2023-09-19T02:40:31;21.60;57.70
72905;DHT22;61048;52.162;4.516;2023-09-19T02:43:01;21.60;57.70
72905;DHT22;61048;52.162;4.516;2023-09-19T02:45:28;21.60;57.70
72905;DHT22;61048;52.162;4.516;2023-09-19T02:47:56;21.50;57.70
72905;DHT22;61048;52.162;4.516;2023-09-19T02:50:23;21.50;57.70
72905;DHT22;61048;52.162;4.516;2023-09-19T02:52:52;21.60;57.60
72905;DHT22;61048;52.162;4.516;2023-09-19T02:55:19;21.50;57.70
72905;DHT22;61048;52.162;4.516;2023-09-19T02:57:47;21.50;57.70
72905;DHT22;61048;52.162;4.516;2023-09-19T03:00:15;21.50;57.70
72905;DHT22;61048;52.162;4.516;2023-09-19T03:02:42;21.50;57.60
72905;DHT22;61048;52.162;4.516;2023-09-19T03:05:10;21.50;57.70
72905;DHT22;61048;52.162;4.516;2023-09-19T03:07:38;21.50;57.50
72905;DHT22;61048;52.162;4.516;2023-09-19T03:10:07;21.50;57.60
72905;DHT22;61048;52.162;4.516;2023-09-19T03:12:34;21.50;57.50
72905;DHT22;61048;52.162;4.516;2023-09-19T03:15:02;21.50;57.60
72905;DHT22;61048;52.162;4.516;2023-09-19T03:17:30;21.50;57.50
72905;DHT22;61048;52.162;4.516;2023-09-19T03:19:58;21.50;57.60
72905;DHT22;61048;52.162;4.516;2023-09-19T03:22:26;21.50;57.60
72905;DHT22;61048;52.162;4.516;2023-09-19T03:24:53;21.50;57.50
72905;DHT22;61048;52.162;4.516;2023-09-19T03:27:21;21.50;57.50
72905;DHT22;61048;52.162;4.516;2023-09-19T03:29:48;21.50;57.40
72905;DHT22;61048;52.162;4.516;2023-09-19T03:32:15;21.50;57.40
72905;DHT22;61048;52.162;4.516;2023-09-19T03:34:42;21.50;57.50
72905;DHT22;61048;52.162;4.516;2023-09-19T03:37:08;21.50;57.40
72905;DHT22;61048;52.162;4.516;2023-09-19T03:39:35;21.50;57.40
72905;DHT22;61048;52.162;4.516;2023-09-19T03:42:03;21.50;57.40
72905;DHT22;61048;52.162;4.516;2023-09-19T03:44:33;21.50;57.50
72905;DHT22;61048;52.162;4.516;2023-09-19T03:47:00;21.50;57.40
72905;DHT22;61048;52.162;4.516;2023-09-19T03:49:28;21.50;57.20
72905;DHT22;61048;52.162;4.516;2023-09-19T03:51:56;21.50;57.40
72905;DHT22;61048;52.162;4.516;2023-09-19T03:54:23;21.50;57.30
72905;DHT22;61048;52.162;4.516;2023-09-19T03:56:50;21.40;57.30
72905;DHT22;61048;52.162;4.516;2023-09-19T03:59:17;21.50;57.20
72905;DHT22;61048;52.162;4.516;2023-09-19T04:01:46;21.50;57.30
72905;DHT22;61048;52.162;4.516;2023-09-19T04:04:13;21.40;57.20
72905;DHT22;61048;52.162;4.516;2023-09-19T04:06:40;21.40;57.30
72905;DHT22;61048;52.162;4.516;2023-09-19T04:09:07;21.40;57.30
72905;DHT22;61048;52.162;4.516;2023-09-19T04:11:34;21.40;57.20
72905;DHT22;61048;52.162;4.516;2023-09-19T04:14:03;21.40;57.20
72905;DHT22;61048;52.162;4.516;2023-09-19T04:16:31;21.40;57.30
72905;DHT22;61048;52.162;4.516;2023-09-19T04:18:59;21.40;57.20
72905;DHT22;61048;52.162;4.516;2023-09-19T04:21:26;21.40;57.30
72905;DHT22;61048;52.162;4.516;2023-09-19T04:23:53;21.40;57.20
72905;DHT22;61048;52.162;4.516;2023-09-19T04:26:20;21.40;57.20
72905;DHT22;61048;52.162;4.516;2023-09-19T04:28:47;21.40;57.10
72905;DHT22;61048;52.162;4.516;2023-09-19T04:31:14;21.40;57.10
72905;DHT22;61048;52.162;4.516;2023-09-19T04:33:42;21.40;57.10
72905;DHT22;61048;52.162;4.516;2023-09-19T04:36:11;21.40;57.20
72905;DHT22;61048;52.162;4.516;2023-09-19T04:38:38;21.40;57.10
72905;DHT22;61048;52.162;4.516;2023-09-19T04:41:05;21.40;57.10
72905;DHT22;61048;52.162;4.516;2023-09-19T04:43:32;21.40;57.10
72905;DHT22;61048;52.162;4.516;2023-09-19T04:45:59;21.40;57.00
72905;DHT22;61048;52.162;4.516;2023-09-19T04:48:26;21.40;56.90
72905;DHT22;61048;52.162;4.516;2023-09-19T04:50:54;21.30;56.90
72905;DHT22;61048;52.162;4.516;2023-09-19T04:53:22;21.30;56.90
72905;DHT22;61048;52.162;4.516;2023-09-19T04:55:50;21.40;56.90
72905;DHT22;61048;52.162;4.516;2023-09-19T04:58:18;21.30;57.00
72905;DHT22;61048;52.162;4.516;2023-09-19T05:00:46;21.40;58.40
72905;DHT22;61048;52.162;4.516;2023-09-19T05:03:13;21.40;59.10
72905;DHT22;61048;52.162;4.516;2023-09-19T05:05:40;21.40;58.90
72905;DHT22;61048;52.162;4.516;2023-09-19T05:08:08;21.40;58.80
72905;DHT22;61048;52.162;4.516;2023-09-19T05:10:36;21.40;58.90
72905;DHT22;61048;52.162;4.516;2023-09-19T05:13:04;21.40;59.10
72905;DHT22;61048;52.162;4.516;2023-09-19T05:15:33;21.40;59.30
72905;DHT22;61048;52.162;4.516;2023-09-19T05:18:01;21.40;59.30
72905;DHT22;61048;52.162;4.516;2023-09-19T05:20:31;21.40;59.50
72905;DHT22;61048;52.162;4.516;2023-09-19T05:23:01;21.40;59.70
72905;DHT22;61048;52.162;4.516;2023-09-19T05:25:32;21.40;59.70
72905;DHT22;61048;52.162;4.516;2023-09-19T05:28:04;21.40;59.60
72905;DHT22;61048;52.162;4.516;2023-09-19T05:30:32;21.40;59.70
72905;DHT22;61048;52.162;4.516;2023-09-19T05:32:59;21.40;59.70
72905;DHT22;61048;52.162;4.516;2023-09-19T05:35:26;21.40;59.80
72905;DHT22;61048;52.162;4.516;2023-09-19T05:37:53;21.40;59.70
72905;DHT22;61048;52.162;4.516;2023-09-19T05:40:21;21.40;59.80
72905;DHT22;61048;52.162;4.516;2023-09-19T05:42:49;21.40;59.60
72905;DHT22;61048;52.162;4.516;2023-09-19T05:45:18;21.40;59.60
72905;DHT22;61048;52.162;4.516;2023-09-19T05:47:47;21.40;59.40
72905;DHT22;61048;52.162;4.516;2023-09-19T05:50:15;21.30;59.20
72905;DHT22;61048;52.162;4.516;2023-09-19T05:52:50;21.40;58.90
72905;DHT22;61048;52.162;4.516;2023-09-19T05:55:17;21.30;58.70
72905;DHT22;61048;52.162;4.516;2023-09-19T05:57:49;21.30;58.60
72905;DHT22;61048;52.162;4.516;2023-09-19T06:00:18;21.30;58.40
72905;DHT22;61048;52.162;4.516;2023-09-19T06:02:50;21.30;58.30
72905;DHT22;61048;52.162;4.516;2023-09-19T06:05:17;21.30;58.20
72905;DHT22;61048;52.162;4.516;2023-09-19T06:07:44;21.30;55.90
72905;DHT22;61048;52.162;4.516;2023-09-19T06:10:12;21.20;55.00
72905;DHT22;61048;52.162;4.516;2023-09-19T06:12:40;21.20;56.00
72905;DHT22;61048;52.162;4.516;2023-09-19T06:15:10;21.20;56.60
72905;DHT22;61048;52.162;4.516;2023-09-19T06:17:42;21.10;54.30
72905;DHT22;61048;52.162;4.516;2023-09-19T06:20:10;21.00;54.30
72905;DHT22;61048;52.162;4.516;2023-09-19T06:22:41;20.90;53.80
72905;DHT22;61048;52.162;4.516;2023-09-19T06:25:09;20.80;53.30
72905;DHT22;61048;52.162;4.516;2023-09-19T06:27:38;20.70;53.10
72905;DHT22;61048;52.162;4.516;2023-09-19T06:30:07;20.60;53.80
72905;DHT22;61048;52.162;4.516;2023-09-19T06:32:35;20.70;54.70
72905;DHT22;61048;52.162;4.516;2023-09-19T06:35:03;20.80;54.90
72905;DHT22;61048;52.162;4.516;2023-09-19T06:37:34;20.90;55.30
72905;DHT22;61048;52.162;4.516;2023-09-19T06:40:01;21.00;55.40
72905;DHT22;61048;52.162;4.516;2023-09-19T06:42:28;21.00;55.80
72905;DHT22;61048;52.162;4.516;2023-09-19T06:44:55;21.10;55.90
72905;DHT22;61048;52.162;4.516;2023-09-19T06:47:22;21.10;56.10
72905;DHT22;61048;52.162;4.516;2023-09-19T06:49:51;21.00;53.00
72905;DHT22;61048;52.162;4.516;2023-09-19T06:52:20;20.90;53.60
72905;DHT22;61048;52.162;4.516;2023-09-19T06:54:47;21.00;54.60
72905;DHT22;61048;52.162;4.516;2023-09-19T06:57:15;21.10;55.30
72905;DHT22;61048;52.162;4.516;2023-09-19T06:59:42;21.10;55.10
72905;DHT22;61048;52.162;4.516;2023-09-19T07:02:10;21.20;55.20
72905;DHT22;61048;52.162;4.516;2023-09-19T07:04:37;21.20;55.40
72905;DHT22;61048;52.162;4.516;2023-09-19T07:07:04;21.30;55.90
72905;DHT22;61048;52.162;4.516;2023-09-19T07:09:32;21.30;56.00
72905;DHT22;61048;52.162;4.516;2023-09-19T07:11:59;21.30;55.40
72905;DHT22;61048;52.162;4.516;2023-09-19T07:14:26;21.30;55.70
72905;DHT22;61048;52.162;4.516;2023-09-19T07:16:53;21.30;56.00
72905;DHT22;61048;52.162;4.516;2023-09-19T07:19:20;21.30;55.40
72905;DHT22;61048;52.162;4.516;2023-09-19T07:21:47;21.40;55.10
72905;DHT22;61048;52.162;4.516;2023-09-19T07:24:16;21.40;55.50
72905;DHT22;61048;52.162;4.516;2023-09-19T07:26:45;21.40;55.90
72905;DHT22;61048;52.162;4.516;2023-09-19T07:29:12;21.40;55.80
72905;DHT22;61048;52.162;4.516;2023-09-19T07:31:39;21.40;55.70
72905;DHT22;61048;52.162;4.516;2023-09-19T07:34:06;21.40;56.10
72905;DHT22;61048;52.162;4.516;2023-09-19T07:36:34;21.40;56.00
72905;DHT22;61048;52.162;4.516;2023-09-19T07:39:03;21.50;55.90
72905;DHT22;61048;52.162;4.516;2023-09-19T07:41:32;21.50;56.10
72905;DHT22;61048;52.162;4.516;2023-09-19T07:44:00;21.50;56.50
72905;DHT22;61048;52.162;4.516;2023-09-19T07:46:27;21.50;57.00
72905;DHT22;61048;52.162;4.516;2023-09-19T07:48:56;21.50;56.60
72905;DHT22;61048;52.162;4.516;2023-09-19T07:51:23;21.50;56.30
72905;DHT22;61048;52.162;4.516;2023-09-19T07:53:50;21.50;56.80
72905;DHT22;61048;52.162;4.516;2023-09-19T07:56:18;21.50;56.50
72905;DHT22;61048;52.162;4.516;2023-09-19T07:58:45;21.60;56.70
72905;DHT22;61048;52.162;4.516;2023-09-19T08:01:15;21.60;56.70
72905;DHT22;61048;52.162;4.516;2023-09-19T08:03:42;21.60;56.50
72905;DHT22;61048;52.162;4.516;2023-09-19T08:06:09;21.60;56.70
72905;DHT22;61048;52.162;4.516;2023-09-19T08:08:37;21.60;57.70
72905;DHT22;61048;52.162;4.516;2023-09-19T08:11:05;21.70;57.10
72905;DHT22;61048;52.162;4.516;2023-09-19T08:13:37;21.70;56.70
72905;DHT22;61048;52.162;4.516;2023-09-19T08:16:09;21.70;56.80
72905;DHT22;61048;52.162;4.516;2023-09-19T08:18:37;21.70;56.50
72905;DHT22;61048;52.162;4.516;2023-09-19T08:21:05;21.70;56.80
72905;DHT22;61048;52.162;4.516;2023-09-19T08:23:36;21.70;56.80
72905;DHT22;61048;52.162;4.516;2023-09-19T08:26:03;21.70;56.70
72905;DHT22;61048;52.162;4.516;2023-09-19T08:28:32;21.70;56.90
72905;DHT22;61048;52.162;4.516;2023-09-19T08:31:02;21.70;56.70
72905;DHT22;61048;52.162;4.516;2023-09-19T08:33:31;21.70;56.90
72905;DHT22;61048;52.162;4.516;2023-09-19T08:36:00;21.70;56.80
72905;DHT22;61048;52.162;4.516;2023-09-19T08:38:27;21.70;57.00
72905;DHT22;61048;52.162;4.516;2023-09-19T08:40:57;21.70;56.70
72905;DHT22;61048;52.162;4.516;2023-09-19T08:43:25;21.70;57.10
72905;DHT22;61048;52.162;4.516;2023-09-19T08:45:57;21.70;56.90
72905;DHT22;61048;52.162;4.516;2023-09-19T08:48:26;21.70;56.80
72905;DHT22;61048;52.162;4.516;2023-09-19T08:50:56;21.70;56.70
72905;DHT22;61048;52.162;4.516;2023-09-19T08:53:34;21.70;56.90
72905;DHT22;61048;52.162;4.516;2023-09-19T08:56:04;21.70;57.10
72905;DHT22;61048;52.162;4.516;2023-09-19T08:58:39;21.60;56.80
72905;DHT22;61048;52.162;4.516;2023-09-19T09:01:14;21.60;56.80
72905;DHT22;61048;52.162;4.516;2023-09-19T09:03:42;21.60;56.90
72905;DHT22;61048;52.162;4.516;2023-09-19T09:06:13;21.60;57.00
72905;DHT22;61048;52.162;4.516;2023-09-19T09:08:43;21.60;57.10
72905;DHT22;61048;52.162;4.516;2023-09-19T09:11:11;21.60;57.20
72905;DHT22;61048;52.162;4.516;2023-09-19T09:13:38;21.60;57.30
72905;DHT22;61048;52.162;4.516;2023-09-19T09:16:07;21.60;57.40
72905;DHT22;61048;52.162;4.516;2023-09-19T09:18:35;21.60;57.40
72905;DHT22;61048;52.162;4.516;2023-09-19T09:21:02;21.70;57.40
72905;DHT22;61048;52.162;4.516;2023-09-19T09:23:31;21.70;57.30
72905;DHT22;61048;52.162;4.516;2023-09-19T09:26:00;21.70;57.40
72905;DHT22;61048;52.162;4.516;2023-09-19T09:28:29;21.70;57.40
72905;DHT22;61048;52.162;4.516;2023-09-19T09:30:57;21.70;57.30
72905;DHT22;61048;52.162;4.516;2023-09-19T09:33:25;21.70;57.30
72905;DHT22;61048;52.162;4.516;2023-09-19T09:35:53;21.70;57.20
72905;DHT22;61048;52.162;4.516;2023-09-19T09:38:23;21.70;57.30
72905;DHT22;61048;52.162;4.516;2023-09-19T09:40:54;21.70;57.10
72905;DHT22;61048;52.162;4.516;2023-09-19T09:43:28;21.70;57.10
72905;DHT22;61048;52.162;4.516;2023-09-19T09:46:12;21.70;57.20
72905;DHT22;61048;52.162;4.516;2023-09-19T09:49:03;21.70;57.20
72905;DHT22;61048;52.162;4.516;2023-09-19T09:52:00;21.70;57.30
72905;DHT22;61048;52.162;4.516;2023-09-19T09:54:31;21.70;57.20
72905;DHT22;61048;52.162;4.516;2023-09-19T09:57:04;21.70;57.10
72905;DHT22;61048;52.162;4.516;2023-09-19T09:59:51;21.70;57.00
72905;DHT22;61048;52.162;4.516;2023-09-19T10:02:20;21.70;57.10
72905;DHT22;61048;52.162;4.516;2023-09-19T10:04:51;21.70;57.00
72905;DHT22;61048;52.162;4.516;2023-09-19T10:07:25;21.70;57.10
72905;DHT22;61048;52.162;4.516;2023-09-19T10:09:59;21.70;57.00
72905;DHT22;61048;52.162;4.516;2023-09-19T10:12:38;21.80;57.00
72905;DHT22;61048;52.162;4.516;2023-09-19T10:15:08;21.70;57.00
72905;DHT22;61048;52.162;4.516;2023-09-19T10:17:37;21.70;57.10
72905;DHT22;61048;52.162;4.516;2023-09-19T10:20:10;21.70;57.00
72905;DHT22;61048;52.162;4.516;2023-09-19T10:22:48;21.70;57.00
72905;DHT22;61048;52.162;4.516;2023-09-19T10:25:25;21.70;57.20
72905;DHT22;61048;52.162;4.516;2023-09-19T10:27:54;21.70;57.00
72905;DHT22;61048;52.162;4.516;2023-09-19T10:30:24;21.70;57.00
72905;DHT22;61048;52.162;4.516;2023-09-19T10:32:57;21.70;57.10
72905;DHT22;61048;52.162;4.516;2023-09-19T10:35:26;21.70;56.90
72905;DHT22;61048;52.162;4.516;2023-09-19T10:37:55;21.70;56.90
72905;DHT22;61048;52.162;4.516;2023-09-19T10:40:24;21.70;56.90
72905;DHT22;61048;52.162;4.516;2023-09-19T10:43:01;21.70;56.80
72905;DHT22;61048;52.162;4.516;2023-09-19T10:45:32;21.70;56.80
72905;DHT22;61048;52.162;4.516;2023-09-19T10:47:59;21.70;56.90
72905;DHT22;61048;52.162;4.516;2023-09-19T10:50:30;21.70;56.90
72905;DHT22;61048;52.162;4.516;2023-09-19T10:53:00;21.70;57.10
72905;DHT22;61048;52.162;4.516;2023-09-19T10:55:31;21.70;57.00
72905;DHT22;61048;52.162;4.516;2023-09-19T10:58:01;21.70;57.00
72905;DHT22;61048;52.162;4.516;2023-09-19T11:00:50;21.70;57.00
72905;DHT22;61048;52.162;4.516;2023-09-19T11:03:18;21.80;57.00
72905;DHT22;61048;52.162;4.516;2023-09-19T11:06:05;21.80;57.00
72905;DHT22;61048;52.162;4.516;2023-09-19T11:09:08;21.80;57.00
72905;DHT22;61048;52.162;4.516;2023-09-19T11:11:50;21.80;57.10
72905;DHT22;61048;52.162;4.516;2023-09-19T11:14:37;21.80;57.00
72905;DHT22;61048;52.162;4.516;2023-09-19T11:17:33;21.80;57.00
72905;DHT22;61048;52.162;4.516;2023-09-19T11:20:27;21.70;57.00
72905;DHT22;61048;52.162;4.516;2023-09-19T11:23:22;21.70;57.10
72905;DHT22;61048;52.162;4.516;2023-09-19T11:25:50;21.70;57.10
72905;DHT22;61048;52.162;4.516;2023-09-19T11:28:34;21.70;57.10
72905;DHT22;61048;52.162;4.516;2023-09-19T11:34:41;21.70;57.20
72905;DHT22;61048;52.162;4.516;2023-09-19T11:40:36;21.70;57.30
72905;DHT22;61048;52.162;4.516;2023-09-19T11:43:29;21.70;57.40
72905;DHT22;61048;52.162;4.516;2023-09-19T11:46:05;21.60;57.50
72905;DHT22;61048;52.162;4.516;2023-09-19T11:48:32;21.70;57.50
72905;DHT22;61048;52.162;4.516;2023-09-19T11:51:03;21.60;57.40
72905;DHT22;61048;52.162;4.516;2023-09-19T11:53:40;21.60;57.60
72905;DHT22;61048;52.162;4.516;2023-09-19T11:56:09;21.60;57.70
72905;DHT22;61048;52.162;4.516;2023-09-19T11:58:37;21.70;57.90
72905;DHT22;61048;52.162;4.516;2023-09-19T12:01:05;21.60;57.90
72905;DHT22;61048;52.162;4.516;2023-09-19T12:03:45;21.60;58.00
72905;DHT22;61048;52.162;4.516;2023-09-19T12:06:15;21.60;58.00
72905;DHT22;61048;52.162;4.516;2023-09-19T12:08:43;21.60;58.10
72905;DHT22;61048;52.162;4.516;2023-09-19T12:11:13;21.60;58.30
72905;DHT22;61048;52.162;4.516;2023-09-19T12:13:42;21.60;58.30
72905;DHT22;61048;52.162;4.516;2023-09-19T12:16:14;21.60;58.40
72905;DHT22;61048;52.162;4.516;2023-09-19T12:18:42;21.60;58.40
72905;DHT22;61048;52.162;4.516;2023-09-19T12:21:27;21.60;58.40
72905;DHT22;61048;52.162;4.516;2023-09-19T12:24:04;21.60;58.50
72905;DHT22;61048;52.162;4.516;2023-09-19T12:26:38;21.60;58.40
72905;DHT22;61048;52.162;4.516;2023-09-19T12:29:14;21.60;58.30
72905;DHT22;61048;52.162;4.516;2023-09-19T12:31:52;21.60;58.30
72905;DHT22;61048;52.162;4.516;2023-09-19T12:34:22;21.60;58.20
72905;DHT22;61048;52.162;4.516;2023-09-19T12:37:05;21.60;58.20
72905;DHT22;61048;52.162;4.516;2023-09-19T12:39:37;21.60;58.20
72905;DHT22;61048;52.162;4.516;2023-09-19T12:42:07;21.60;58.10
72905;DHT22;61048;52.162;4.516;2023-09-19T12:44:36;21.60;58.10
72905;DHT22;61048;52.162;4.516;2023-09-19T12:47:11;21.60;58.00
72905;DHT22;61048;52.162;4.516;2023-09-19T12:50:06;21.60;58.10
72905;DHT22;61048;52.162;4.516;2023-09-19T12:52:41;21.60;58.00
72905;DHT22;61048;52.162;4.516;2023-09-19T12:55:18;21.60;58.00
72905;DHT22;61048;52.162;4.516;2023-09-19T12:58:08;21.60;57.90
72905;DHT22;61048;52.162;4.516;2023-09-19T13:00:36;21.60;58.00
72905;DHT22;61048;52.162;4.516;2023-09-19T13:03:16;21.60;58.00
72905;DHT22;61048;52.162;4.516;2023-09-19T13:05:51;21.60;58.00
72905;DHT22;61048;52.162;4.516;2023-09-19T13:08:25;21.60;57.90
72905;DHT22;61048;52.162;4.516;2023-09-19T13:11:09;21.60;58.00
72905;DHT22;61048;52.162;4.516;2023-09-19T13:13:39;21.60;58.10
72905;DHT22;61048;52.162;4.516;2023-09-19T13:16:07;21.60;58.10
72905;DHT22;61048;52.162;4.516;2023-09-19T13:18:45;21.60;58.10
72905;DHT22;61048;52.162;4.516;2023-09-19T13:21:13;21.60;58.20
72905;DHT22;61048;52.162;4.516;2023-09-19T13:23:54;21.50;58.30
72905;DHT22;61048;52.162;4.516;2023-09-19T13:26:24;21.60;58.30
72905;DHT22;61048;52.162;4.516;2023-09-19T13:28:51;21.50;58.40
72905;DHT22;61048;52.162;4.516;2023-09-19T13:31:18;21.60;58.50
72905;DHT22;61048;52.162;4.516;2023-09-19T13:33:45;21.60;58.40
72905;DHT22;61048;52.162;4.516;2023-09-19T13:36:12;21.60;58.50
72905;DHT22;61048;52.162;4.516;2023-09-19T13:38:40;21.60;58.50
72905;DHT22;61048;52.162;4.516;2023-09-19T13:41:09;21.50;58.60
72905;DHT22;61048;52.162;4.516;2023-09-19T13:43:36;21.50;58.60
72905;DHT22;61048;52.162;4.516;2023-09-19T13:46:04;21.50;58.70
72905;DHT22;61048;52.162;4.516;2023-09-19T13:48:33;21.50;59.00
72905;DHT22;61048;52.162;4.516;2023-09-19T13:51:02;21.50;59.10
72905;DHT22;61048;52.162;4.516;2023-09-19T13:53:30;21.50;59.30
72905;DHT22;61048;52.162;4.516;2023-09-19T13:55:57;21.50;59.30
72905;DHT22;61048;52.162;4.516;2023-09-19T13:58:25;21.50;59.40
72905;DHT22;61048;52.162;4.516;2023-09-19T14:00:53;21.50;59.30
72905;DHT22;61048;52.162;4.516;2023-09-19T14:03:23;21.50;59.30
72905;DHT22;61048;52.162;4.516;2023-09-19T14:05:53;21.40;59.30
72905;DHT22;61048;52.162;4.516;2023-09-19T14:08:20;21.40;59.30
72905;DHT22;61048;52.162;4.516;2023-09-19T14:10:48;21.40;59.40
72905;DHT22;61048;52.162;4.516;2023-09-19T14:13:15;21.40;59.50
72905;DHT22;61048;52.162;4.516;2023-09-19T14:15:44;21.40;59.80
72905;DHT22;61048;52.162;4.516;2023-09-19T14:18:10;21.40;59.80
72905;DHT22;61048;52.162;4.516;2023-09-19T14:20:38;21.40;59.90
72905;DHT22;61048;52.162;4.516;2023-09-19T14:23:06;21.40;59.90
72905;DHT22;61048;52.162;4.516;2023-09-19T14:25:34;21.40;59.90
72905;DHT22;61048;52.162;4.516;2023-09-19T14:28:01;21.40;59.80
72905;DHT22;61048;52.162;4.516;2023-09-19T14:30:28;21.40;59.80
72905;DHT22;61048;52.162;4.516;2023-09-19T14:32:57;21.40;59.80
72905;DHT22;61048;52.162;4.516;2023-09-19T14:35:24;21.40;60.00
72905;DHT22;61048;52.162;4.516;2023-09-19T14:37:51;21.40;60.00
72905;DHT22;61048;52.162;4.516;2023-09-19T14:40:18;21.40;60.00
72905;DHT22;61048;52.162;4.516;2023-09-19T14:42:46;21.40;60.10
72905;DHT22;61048;52.162;4.516;2023-09-19T14:45:13;21.30;59.90
72905;DHT22;61048;52.162;4.516;2023-09-19T14:47:43;21.30;60.10
72905;DHT22;61048;52.162;4.516;2023-09-19T14:50:12;21.40;59.90
72905;DHT22;61048;52.162;4.516;2023-09-19T14:52:39;21.30;60.00
72905;DHT22;61048;52.162;4.516;2023-09-19T14:55:07;21.40;60.10
72905;DHT22;61048;52.162;4.516;2023-09-19T14:57:40;21.30;60.10
72905;DHT22;61048;52.162;4.516;2023-09-19T15:00:08;21.30;60.10
72905;DHT22;61048;52.162;4.516;2023-09-19T15:02:38;21.30;60.10
72905;DHT22;61048;52.162;4.516;2023-09-19T15:05:06;21.30;60.30
72905;DHT22;61048;52.162;4.516;2023-09-19T15:07:36;21.30;60.30
72905;DHT22;61048;52.162;4.516;2023-09-19T15:10:04;21.30;60.50
72905;DHT22;61048;52.162;4.516;2023-09-19T15:12:32;21.30;60.50
72905;DHT22;61048;52.162;4.516;2023-09-19T15:15:00;21.30;60.60
72905;DHT22;61048;52.162;4.516;2023-09-19T15:17:27;21.30;60.60
72905;DHT22;61048;52.162;4.516;2023-09-19T15:19:54;21.30;60.80
72905;DHT22;61048;52.162;4.516;2023-09-19T15:22:21;21.30;60.60
72905;DHT22;61048;52.162;4.516;2023-09-19T15:24:50;21.30;60.80
72905;DHT22;61048;52.162;4.516;2023-09-19T15:27:17;21.30;60.80
72905;DHT22;61048;52.162;4.516;2023-09-19T15:29:45;21.20;60.80
72905;DHT22;61048;52.162;4.516;2023-09-19T15:32:13;21.20;60.80
72905;DHT22;61048;52.162;4.516;2023-09-19T15:34:40;21.20;60.80
72905;DHT22;61048;52.162;4.516;2023-09-19T15:37:06;21.20;61.10
72905;DHT22;61048;52.162;4.516;2023-09-19T15:39:33;21.20;60.90
72905;DHT22;61048;52.162;4.516;2023-09-19T15:42:04;21.20;60.90
72905;DHT22;61048;52.162;4.516;2023-09-19T15:44:31;21.20;61.00
72905;DHT22;61048;52.162;4.516;2023-09-19T15:46:58;21.20;61.10
72905;DHT22;61048;52.162;4.516;2023-09-19T15:49:25;21.20;61.00
72905;DHT22;61048;52.162;4.516;2023-09-19T15:51:52;21.20;61.00
72905;DHT22;61048;52.162;4.516;2023-09-19T15:54:19;21.20;61.00
72905;DHT22;61048;52.162;4.516;2023-09-19T15:56:46;21.20;61.10
72905;DHT22;61048;52.162;4.516;2023-09-19T15:59:15;21.20;61.10